createdAt,value
2017-12-19T00:01:14.797Z,5.80
2017-12-19T00:03:42.256Z,6.30
2017-12-19T00:06:09.738Z,6.32
2017-12-19T00:08:37.199Z,5.37
2017-12-19T00:11:04.665Z,6.78
2017-12-19T00:13:32.114Z,6.70
2017-12-19T00:16:00.354Z,6.57
2017-12-19T00:18:27.818Z,6.30
2017-12-19T00:20:55.297Z,7.60
2017-12-19T00:23:23.513Z,6.30
2017-12-19T00:25:50.978Z,6.80
2017-12-19T00:28:18.446Z,7.50
2017-12-19T00:30:45.910Z,6.93
2017-12-19T00:33:13.361Z,7.28
2017-12-19T00:35:40.827Z,6.97
2017-12-19T00:38:09.052Z,7.65
2017-12-19T00:40:36.517Z,7.00
2017-12-19T00:43:03.963Z,7.22
2017-12-19T00:45:32.194Z,7.20
2017-12-19T00:47:59.665Z,7.40
2017-12-19T00:50:27.125Z,7.35
2017-12-19T00:52:54.586Z,6.80
2017-12-19T00:55:22.046Z,6.90
2017-12-19T00:57:49.513Z,6.97
2017-12-19T01:00:16.997Z,6.15
2017-12-19T01:02:44.455Z,6.18
2017-12-19T01:05:11.913Z,6.47
2017-12-19T01:07:39.376Z,6.80
2017-12-19T01:10:06.822Z,6.40
2017-12-19T01:12:34.299Z,6.37
2017-12-19T01:15:01.782Z,6.28
2017-12-19T01:17:29.287Z,6.20
2017-12-19T01:19:57.507Z,6.43
2017-12-19T01:22:24.970Z,6.15
2017-12-19T01:24:52.433Z,6.30
2017-12-19T01:27:19.900Z,6.20
2017-12-19T01:29:47.349Z,5.22
2017-12-19T01:32:15.584Z,6.65
2017-12-19T01:34:43.804Z,5.80
2017-12-19T01:40:02.313Z,6.10
2017-12-19T01:42:30.541Z,5.53
2017-12-19T01:44:57.994Z,5.57
2017-12-19T01:47:25.466Z,6.07
2017-12-19T01:49:52.919Z,5.80
2017-12-19T01:52:20.375Z,6.47
2017-12-19T01:54:47.835Z,6.50
2017-12-19T01:57:15.298Z,5.93
2017-12-19T01:59:42.759Z,6.93
2017-12-19T02:02:10.235Z,6.80
2017-12-19T02:04:37.689Z,7.03
2017-12-19T02:07:05.205Z,7.75
2017-12-19T02:09:32.658Z,7.32
2017-12-19T02:12:00.142Z,7.22
2017-12-19T02:14:27.608Z,7.62
2017-12-19T02:16:55.074Z,7.25
2017-12-19T02:19:23.302Z,6.62
2017-12-19T02:21:50.830Z,6.85
2017-12-19T02:24:18.298Z,7.22
2017-12-19T02:26:46.526Z,7.32
2017-12-19T02:29:14.002Z,8.20
2017-12-19T02:31:41.472Z,7.95
2017-12-19T02:34:08.942Z,8.52
2017-12-19T02:36:36.404Z,8.20
2017-12-19T02:39:04.681Z,8.43
2017-12-19T02:41:32.157Z,8.80
2017-12-19T02:44:00.906Z,8.48
2017-12-19T02:46:28.384Z,9.15
2017-12-19T02:48:55.855Z,8.32
2017-12-19T02:51:24.083Z,8.98
2017-12-19T02:53:51.550Z,8.70
2017-12-19T02:56:19.018Z,9.48
2017-12-19T02:58:46.506Z,9.35
2017-12-19T03:01:14.731Z,9.88
2017-12-19T03:03:42.190Z,9.48
2017-12-19T03:06:09.657Z,9.07
2017-12-19T03:08:37.133Z,8.75
2017-12-19T03:11:04.585Z,9.80
2017-12-19T03:13:32.047Z,9.27
2017-12-19T03:15:59.513Z,9.32
2017-12-19T03:18:26.975Z,9.45
2017-12-19T03:20:54.433Z,9.88
2017-12-19T03:23:21.885Z,9.85
2017-12-19T03:25:49.358Z,10.05
2017-12-19T03:28:17.590Z,10.02
2017-12-19T03:30:45.076Z,9.48
2017-12-19T03:33:12.543Z,9.90
2017-12-19T03:35:40.024Z,9.50
2017-12-19T03:38:08.246Z,10.35
2017-12-19T03:40:35.722Z,10.63
2017-12-19T03:43:03.194Z,10.00
2017-12-19T03:45:30.657Z,10.52
2017-12-19T03:47:58.882Z,11.30
2017-12-19T03:50:26.363Z,10.25
2017-12-19T03:52:53.816Z,11.00
2017-12-19T03:55:21.311Z,10.10
2017-12-19T03:57:49.545Z,10.02
2017-12-19T04:00:17.016Z,11.10
2017-12-19T04:02:44.500Z,10.40
2017-12-19T04:05:11.958Z,11.15
2017-12-19T04:07:39.431Z,10.50
2017-12-19T04:10:07.653Z,9.73
2017-12-19T04:12:35.127Z,10.50
2017-12-19T04:15:02.594Z,10.77
2017-12-19T04:17:30.077Z,10.70
2017-12-19T04:19:58.305Z,10.18
2017-12-19T04:22:25.785Z,10.02
2017-12-19T04:24:53.247Z,9.10
2017-12-19T04:27:20.710Z,10.80
2017-12-19T04:29:48.174Z,9.93
2017-12-19T04:32:15.637Z,10.25
2017-12-19T04:34:43.107Z,10.77
2017-12-19T04:37:11.351Z,10.25
2017-12-19T04:39:38.812Z,10.00
2017-12-19T04:42:06.282Z,10.60
2017-12-19T04:44:33.742Z,10.45
2017-12-19T04:47:01.217Z,10.18
2017-12-19T04:49:29.441Z,10.25
2017-12-19T04:51:56.928Z,9.98
2017-12-19T04:54:24.381Z,10.85
2017-12-19T04:56:51.839Z,10.68
2017-12-19T04:59:19.302Z,10.52
2017-12-19T05:01:46.764Z,10.57
2017-12-19T05:04:14.238Z,11.18
2017-12-19T05:06:42.477Z,10.75
2017-12-19T05:09:09.926Z,9.63
2017-12-19T05:11:37.410Z,10.00
2017-12-19T05:14:04.874Z,11.23
2017-12-19T05:16:32.327Z,9.88
2017-12-19T05:18:59.802Z,11.00
2017-12-19T05:21:28.037Z,10.18
2017-12-19T05:23:55.502Z,11.27
2017-12-19T05:26:22.975Z,10.57
2017-12-19T05:28:50.460Z,10.18
2017-12-19T05:31:18.687Z,10.23
2017-12-19T05:33:46.155Z,10.65
2017-12-19T05:36:13.620Z,10.82
2017-12-19T05:38:41.094Z,10.93
2017-12-19T05:41:08.554Z,11.25
2017-12-19T05:43:36.047Z,10.50
2017-12-19T05:46:03.501Z,10.45
2017-12-19T05:48:30.962Z,11.15
2017-12-19T05:50:58.430Z,10.80
2017-12-19T05:53:25.891Z,10.45
2017-12-19T05:55:53.350Z,11.10
2017-12-19T05:58:20.814Z,10.90
2017-12-19T06:00:48.284Z,9.70
2017-12-19T06:03:15.744Z,10.10
2017-12-19T06:05:43.218Z,10.40
2017-12-19T06:08:10.678Z,12.02
2017-12-19T06:10:38.154Z,10.45
2017-12-19T06:13:05.646Z,10.35
2017-12-19T06:15:33.111Z,10.35
2017-12-19T06:18:01.022Z,11.90
2017-12-19T06:20:28.492Z,10.93
2017-12-19T06:22:55.958Z,10.25
2017-12-19T06:25:23.418Z,10.85
2017-12-19T06:27:51.646Z,11.45
2017-12-19T06:30:19.118Z,10.93
2017-12-19T06:32:46.580Z,11.38
2017-12-19T06:35:14.051Z,10.23
2017-12-19T06:37:41.519Z,10.43
2017-12-19T06:40:09.034Z,10.55
2017-12-19T06:42:36.502Z,10.73
2017-12-19T06:45:03.963Z,10.65
2017-12-19T06:47:31.437Z,11.77
2017-12-19T06:49:58.897Z,10.88
2017-12-19T06:52:26.367Z,11.70
2017-12-19T06:54:53.829Z,10.18
2017-12-19T06:57:21.297Z,11.20
2017-12-19T06:59:49.530Z,10.85
2017-12-19T07:02:16.998Z,12.75
2017-12-19T07:04:44.461Z,11.75
2017-12-19T07:07:11.934Z,11.63
2017-12-19T07:09:39.397Z,12.18
2017-12-19T07:12:06.874Z,12.50
2017-12-19T07:14:34.334Z,14.05
2017-12-19T07:17:02.567Z,13.62
2017-12-19T07:19:30.038Z,13.30
2017-12-19T07:21:57.510Z,14.45
2017-12-19T07:24:25.759Z,14.40
2017-12-19T07:26:53.253Z,15.63
2017-12-19T07:29:21.481Z,16.70
2017-12-19T07:31:49.757Z,15.07
2017-12-19T07:34:17.250Z,15.52
2017-12-19T07:36:44.715Z,16.70
2017-12-19T07:39:12.186Z,15.95
2017-12-19T07:41:40.414Z,15.27
2017-12-19T07:44:07.892Z,15.63
2017-12-19T07:46:35.679Z,15.32
2017-12-19T07:49:03.142Z,15.02
2017-12-19T07:51:31.388Z,16.55
2017-12-19T07:53:58.854Z,17.23
2017-12-19T07:56:26.338Z,16.52
2017-12-19T07:58:54.576Z,17.35
2017-12-19T08:01:22.033Z,16.25
2017-12-19T08:03:49.506Z,16.90
2017-12-19T08:06:16.993Z,18.12
2017-12-19T08:08:45.226Z,16.45
2017-12-19T08:11:12.691Z,17.12
2017-12-19T08:13:40.211Z,16.60
2017-12-19T08:16:07.679Z,16.65
2017-12-19T08:18:35.141Z,15.95
2017-12-19T08:21:02.609Z,17.10
2017-12-19T08:23:30.081Z,15.85
2017-12-19T08:25:57.556Z,16.62
2017-12-19T08:28:25.023Z,15.93
2017-12-19T08:30:52.490Z,15.88
2017-12-19T08:33:20.770Z,16.25
2017-12-19T08:35:48.278Z,16.95
2017-12-19T08:38:15.737Z,14.80
2017-12-19T08:40:43.983Z,14.35
2017-12-19T08:43:11.447Z,15.52
2017-12-19T08:45:38.926Z,15.85
2017-12-19T08:48:06.387Z,13.93
2017-12-19T08:50:33.885Z,13.93
2017-12-19T08:53:01.359Z,15.43
2017-12-19T08:55:29.604Z,15.20
2017-12-19T08:57:57.075Z,14.10
2017-12-19T09:00:24.542Z,15.70
2017-12-19T09:02:52.800Z,15.20
2017-12-19T09:05:20.257Z,16.62
2017-12-19T09:07:47.727Z,15.50
2017-12-19T09:10:15.189Z,15.30
2017-12-19T09:12:43.424Z,16.75
2017-12-19T09:15:10.894Z,14.57
2017-12-19T09:17:38.366Z,14.75
2017-12-19T09:20:05.824Z,15.77
2017-12-19T09:22:33.287Z,15.25
2017-12-19T09:25:00.751Z,15.15
2017-12-19T09:27:28.233Z,15.25
2017-12-19T09:29:55.701Z,14.48
2017-12-19T09:32:23.172Z,15.15
2017-12-19T09:34:50.643Z,14.63
2017-12-19T09:37:18.107Z,14.25
2017-12-19T09:39:45.623Z,14.27
2017-12-19T09:42:13.045Z,14.45
2017-12-19T09:44:40.519Z,12.45
2017-12-19T09:47:07.974Z,13.02
2017-12-19T09:49:35.460Z,14.00
2017-12-19T09:52:03.779Z,12.50
2017-12-19T09:54:31.267Z,13.40
2017-12-19T09:56:59.513Z,13.15
2017-12-19T09:59:26.984Z,14.45
2017-12-19T10:01:54.444Z,13.93
2017-12-19T10:04:21.961Z,14.07
2017-12-19T10:06:49.381Z,13.43
2017-12-19T10:09:16.855Z,14.80
2017-12-19T10:11:45.096Z,15.25
2017-12-19T10:14:12.569Z,15.10
2017-12-19T10:16:40.032Z,15.50
2017-12-19T10:19:07.504Z,13.88
2017-12-19T10:21:35.755Z,15.27
2017-12-19T10:24:03.218Z,14.57
2017-12-19T10:26:30.694Z,14.50
2017-12-19T10:28:58.930Z,14.75
2017-12-19T10:31:26.396Z,14.35
2017-12-19T10:33:53.921Z,14.50
2017-12-19T10:36:21.397Z,14.30
2017-12-19T10:38:48.879Z,14.48
2017-12-19T10:41:16.359Z,14.85
2017-12-19T10:43:44.600Z,14.43
2017-12-19T10:46:12.066Z,15.40
2017-12-19T10:48:39.534Z,14.43
2017-12-19T10:51:07.013Z,15.25
2017-12-19T10:53:35.236Z,14.77
2017-12-19T10:56:02.807Z,14.18
2017-12-19T10:58:30.991Z,13.00
2017-12-19T11:00:59.258Z,14.00
2017-12-19T11:03:29.130Z,14.95
2017-12-19T11:05:56.658Z,12.90
2017-12-19T11:08:24.112Z,15.02
2017-12-19T11:10:51.585Z,13.65
2017-12-19T11:13:19.048Z,14.95
2017-12-19T11:15:47.228Z,13.85
2017-12-19T11:18:15.562Z,16.17
2017-12-19T11:20:43.064Z,15.77
2017-12-19T11:23:10.535Z,15.35
2017-12-19T11:25:38.782Z,16.83
2017-12-19T11:28:06.257Z,14.05
2017-12-19T11:30:33.775Z,16.08
2017-12-19T11:33:01.268Z,17.75
2017-12-19T11:35:29.892Z,16.90
2017-12-19T11:37:57.378Z,16.30
2017-12-19T11:40:24.891Z,17.62
2017-12-19T11:42:53.141Z,18.83
2017-12-19T11:45:20.622Z,15.85
2017-12-19T11:47:48.866Z,17.62
2017-12-19T11:50:16.346Z,17.80
2017-12-19T11:52:43.830Z,17.62
2017-12-19T11:55:12.094Z,13.88
2017-12-19T11:57:40.327Z,18.35
2017-12-19T12:00:07.860Z,19.25
2017-12-19T12:02:35.344Z,17.05
2017-12-19T12:05:02.820Z,19.55
2017-12-19T12:07:30.315Z,18.40
2017-12-19T12:09:58.562Z,17.58
2017-12-19T12:12:26.077Z,15.73
2017-12-19T12:14:53.572Z,15.63
2017-12-19T12:17:21.078Z,15.77
2017-12-19T12:19:48.640Z,12.50
2017-12-19T12:22:16.133Z,16.40
2017-12-19T12:24:44.759Z,15.02
2017-12-19T12:27:13.021Z,15.07
2017-12-19T12:29:40.505Z,15.15
2017-12-19T12:32:08.763Z,14.90
2017-12-19T12:34:36.262Z,14.38
2017-12-19T12:37:03.750Z,14.40
2017-12-19T12:39:31.267Z,13.52
2017-12-19T12:41:58.747Z,12.98
2017-12-19T12:44:26.246Z,14.20
2017-12-19T12:46:53.765Z,14.13
2017-12-19T12:49:21.290Z,15.00
2017-12-19T12:51:49.531Z,13.20
2017-12-19T12:54:17.029Z,13.05
2017-12-19T12:56:45.270Z,12.30
2017-12-19T12:59:12.800Z,13.48
2017-12-19T13:01:40.304Z,12.95
2017-12-19T13:04:07.811Z,12.90
2017-12-19T13:06:35.313Z,13.73
2017-12-19T13:09:03.910Z,16.00
2017-12-19T13:11:31.430Z,14.75
2017-12-19T13:13:58.960Z,13.15
2017-12-19T13:16:26.427Z,14.23
2017-12-19T13:18:53.943Z,14.23
2017-12-19T13:21:21.418Z,13.02
2017-12-19T13:23:49.657Z,14.60
2017-12-19T13:26:17.166Z,14.30
2017-12-19T13:28:44.644Z,14.43
2017-12-19T13:31:12.117Z,14.02
2017-12-19T13:33:39.575Z,13.32
2017-12-19T13:36:07.054Z,13.35
2017-12-19T13:38:34.531Z,13.77
2017-12-19T13:41:02.002Z,15.75
2017-12-19T13:43:29.516Z,15.20
2017-12-19T13:45:57.704Z,13.80
2017-12-19T13:48:25.165Z,14.57
2017-12-19T13:50:52.642Z,11.20
2017-12-19T13:53:20.119Z,11.63
2017-12-19T13:55:47.589Z,12.40
2017-12-19T13:58:15.066Z,11.48
2017-12-19T14:00:42.535Z,13.05
2017-12-19T14:03:10.015Z,12.15
2017-12-19T14:05:37.481Z,11.35
2017-12-19T14:08:04.943Z,10.70
2017-12-19T14:10:32.510Z,10.82
2017-12-19T14:12:59.973Z,11.93
2017-12-19T14:15:27.469Z,11.43
2017-12-19T14:17:54.934Z,12.27
2017-12-19T14:20:22.402Z,11.23
2017-12-19T14:22:49.879Z,12.82
2017-12-19T14:25:17.348Z,11.15
2017-12-19T14:27:44.837Z,15.15
2017-12-19T14:30:13.123Z,15.90
2017-12-19T14:32:41.356Z,15.10
2017-12-19T14:35:08.820Z,13.65
2017-12-19T14:37:36.290Z,16.73
2017-12-19T14:40:03.754Z,14.27
2017-12-19T14:42:32.022Z,15.50
2017-12-19T14:44:59.465Z,13.70
2017-12-19T14:47:26.944Z,13.00
2017-12-19T14:49:54.402Z,13.55
2017-12-19T14:52:21.874Z,14.57
2017-12-19T14:54:49.345Z,13.25
2017-12-19T14:57:16.841Z,14.27
2017-12-19T14:59:44.295Z,8.93
2017-12-19T15:02:11.769Z,14.43
2017-12-19T15:04:39.238Z,13.93
2017-12-19T15:07:06.710Z,16.12
2017-12-19T15:09:34.194Z,15.50
2017-12-19T15:12:01.686Z,15.70
2017-12-19T15:14:29.161Z,17.40
2017-12-19T15:16:56.626Z,15.48
2017-12-19T15:19:24.097Z,15.90
2017-12-19T15:21:51.563Z,15.38
2017-12-19T15:24:19.047Z,13.35
2017-12-19T15:26:46.508Z,15.38
2017-12-19T15:29:13.994Z,16.15
2017-12-19T15:31:42.226Z,16.70
2017-12-19T15:34:09.704Z,16.33
2017-12-19T15:36:37.207Z,16.83
2017-12-19T15:39:04.664Z,16.90
2017-12-19T15:41:32.119Z,18.25
2017-12-19T15:43:59.590Z,17.77
2017-12-19T15:46:27.054Z,18.80
2017-12-19T15:48:54.534Z,17.12
2017-12-19T15:51:21.993Z,15.82
2017-12-19T15:53:50.233Z,17.08
2017-12-19T15:56:17.701Z,17.60
2017-12-19T15:58:45.198Z,17.20
2017-12-19T16:01:12.663Z,16.12
2017-12-19T16:03:40.136Z,16.98
2017-12-19T16:06:07.611Z,19.40
2017-12-19T16:08:35.104Z,19.85
2017-12-19T16:11:02.569Z,17.70
2017-12-19T16:13:30.044Z,17.98
2017-12-19T16:15:57.541Z,20.62
2017-12-19T16:18:25.019Z,19.05
2017-12-19T16:20:52.487Z,19.30
2017-12-19T16:23:20.001Z,18.87
2017-12-19T16:25:47.438Z,19.40
2017-12-19T16:28:14.907Z,17.85
2017-12-19T16:30:42.386Z,19.87
2017-12-19T16:33:09.853Z,19.95
2017-12-19T16:35:37.371Z,20.00
2017-12-19T16:38:05.605Z,20.67
2017-12-19T16:40:33.148Z,17.17
2017-12-19T16:43:00.612Z,20.05
2017-12-19T16:45:28.096Z,21.95
2017-12-19T16:47:55.568Z,20.62
2017-12-19T16:50:23.045Z,20.00
2017-12-19T16:52:50.545Z,20.60
2017-12-19T16:55:18.038Z,21.60
2017-12-19T16:57:45.510Z,20.20
2017-12-19T17:00:13.766Z,21.65
2017-12-19T17:02:41.239Z,21.35
2017-12-19T17:05:08.814Z,21.65
2017-12-19T17:07:37.084Z,19.48
2017-12-19T17:10:05.318Z,23.10
2017-12-19T17:12:32.810Z,23.10
2017-12-19T17:15:01.094Z,23.85
2017-12-19T17:17:29.346Z,22.85
2017-12-19T17:19:56.857Z,23.48
2017-12-19T17:22:24.323Z,22.65
2017-12-19T17:24:51.794Z,22.95
2017-12-19T17:27:19.294Z,21.48
2017-12-19T17:29:46.801Z,22.17
2017-12-19T17:32:24.206Z,19.15
2017-12-19T17:34:51.731Z,22.73
2017-12-19T17:37:20.012Z,21.98
2017-12-19T17:39:48.358Z,22.00
2017-12-19T17:42:15.818Z,10.23
2017-12-19T17:44:43.337Z,19.30
2017-12-19T17:47:10.809Z,18.58
2017-12-19T17:49:38.313Z,22.40
2017-12-19T17:52:06.591Z,22.40
2017-12-19T17:54:34.866Z,19.70
2017-12-19T17:57:03.146Z,23.95
2017-12-19T17:59:31.400Z,22.92
2017-12-19T18:01:58.863Z,23.08
2017-12-19T18:04:26.339Z,23.77
2017-12-19T18:06:54.588Z,26.05
2017-12-19T18:09:22.047Z,21.17
2017-12-19T18:11:49.525Z,22.80
2017-12-19T18:14:17.809Z,22.35
2017-12-19T18:16:46.037Z,24.45
2017-12-19T18:19:13.580Z,11.93
2017-12-19T18:21:41.035Z,19.92
2017-12-19T18:24:08.560Z,23.80
2017-12-19T18:26:36.820Z,23.10
2017-12-19T18:29:04.282Z,19.83
2017-12-19T18:31:31.740Z,15.90
2017-12-19T18:33:59.278Z,21.75
2017-12-19T18:36:26.737Z,23.30
2017-12-19T18:38:54.237Z,23.62
2017-12-19T18:41:22.511Z,23.45
2017-12-19T18:43:50.742Z,26.40
2017-12-19T18:46:18.281Z,24.40
2017-12-19T18:48:45.828Z,23.80
2017-12-19T18:51:13.340Z,22.85
2017-12-19T18:53:40.910Z,21.80
2017-12-19T18:56:08.450Z,25.90
2017-12-19T18:58:35.975Z,17.52
2017-12-19T19:01:03.485Z,23.75
2017-12-19T19:03:30.949Z,25.40
2017-12-19T19:05:58.468Z,24.10
2017-12-19T19:08:26.014Z,25.10
2017-12-19T19:10:53.478Z,23.90
2017-12-19T19:13:20.994Z,23.35
2017-12-19T19:15:49.239Z,22.80
2017-12-19T19:18:16.766Z,24.80
2017-12-19T19:20:44.238Z,23.20
2017-12-19T19:23:11.760Z,24.15
2017-12-19T19:25:39.992Z,22.87
2017-12-19T19:28:07.457Z,23.45
2017-12-19T19:30:34.972Z,23.73
2017-12-19T19:33:02.520Z,23.90
2017-12-19T19:35:30.817Z,24.65
2017-12-19T19:37:58.334Z,24.25
2017-12-19T19:40:25.805Z,24.92
2017-12-19T19:42:54.117Z,23.73
2017-12-19T19:45:21.635Z,26.00
2017-12-19T19:48:02.732Z,23.87
2017-12-19T19:50:30.265Z,22.58
2017-12-19T19:52:57.771Z,23.17
2017-12-19T19:55:25.286Z,16.35
2017-12-19T19:57:52.810Z,23.90
2017-12-19T20:00:20.326Z,23.73
2017-12-19T20:02:48.605Z,22.25
2017-12-19T20:05:16.889Z,25.90
2017-12-19T20:07:45.159Z,13.02
2017-12-19T20:10:13.449Z,24.42
2017-12-19T20:12:40.965Z,25.20
2017-12-19T20:15:08.480Z,26.17
2017-12-19T20:17:35.947Z,23.70
2017-12-19T20:20:03.532Z,26.30
2017-12-19T20:22:31.107Z,22.65
2017-12-19T20:24:58.617Z,24.70
2017-12-19T20:27:26.136Z,22.25
2017-12-19T20:29:53.590Z,23.70
2017-12-19T20:32:21.926Z,23.67
2017-12-19T20:34:49.458Z,23.75
2017-12-19T20:37:16.974Z,23.52
2017-12-19T20:39:44.453Z,21.33
2017-12-19T20:42:12.013Z,21.65
2017-12-19T20:44:39.522Z,23.27
2017-12-19T20:47:07.050Z,21.55
2017-12-19T20:49:34.586Z,20.67
2017-12-19T20:52:02.178Z,22.73
2017-12-19T20:54:29.688Z,23.02
2017-12-19T20:56:57.223Z,24.10
2017-12-19T20:59:24.741Z,21.85
2017-12-19T21:01:53.018Z,23.20
2017-12-19T21:04:21.333Z,23.10
2017-12-19T21:06:48.888Z,22.42
2017-12-19T21:09:16.462Z,21.77
2017-12-19T21:11:43.980Z,23.65
2017-12-19T21:14:12.270Z,24.25
2017-12-19T21:16:39.805Z,24.27
2017-12-19T21:19:07.402Z,23.25
2017-12-19T21:21:34.885Z,22.58
2017-12-19T21:24:02.441Z,22.83
2017-12-19T21:26:29.999Z,24.00
2017-12-19T21:28:57.516Z,24.75
2017-12-19T21:31:25.760Z,26.83
2017-12-19T21:33:53.282Z,24.55
2017-12-19T21:36:20.745Z,22.15
2017-12-19T21:38:48.280Z,24.52
2017-12-19T21:41:15.824Z,25.80
2017-12-19T21:43:44.108Z,21.83
2017-12-19T21:46:12.399Z,22.10
2017-12-19T21:48:39.933Z,24.42
2017-12-19T21:51:07.409Z,24.37
2017-12-19T21:53:35.703Z,25.75
2017-12-19T21:56:03.229Z,23.62
2017-12-19T21:58:31.525Z,23.27
2017-12-19T22:00:59.817Z,22.23
2017-12-19T22:03:27.360Z,21.15
2017-12-19T22:05:55.633Z,22.70
2017-12-19T22:08:23.929Z,11.65
2017-12-19T22:10:51.465Z,18.75
2017-12-19T22:13:19.766Z,20.90
2017-12-19T22:15:47.317Z,19.25
2017-12-19T22:18:15.550Z,20.55
2017-12-19T22:20:43.070Z,18.52
2017-12-19T22:23:10.598Z,16.60
2017-12-19T22:25:38.876Z,16.67
2017-12-19T22:28:07.113Z,16.20
2017-12-19T22:30:34.644Z,15.05
2017-12-19T22:33:02.177Z,14.98
2017-12-19T22:35:30.479Z,17.00
2017-12-19T22:37:57.984Z,17.25
2017-12-19T22:40:25.525Z,15.60
2017-12-19T22:42:53.028Z,16.27
2017-12-19T22:45:21.317Z,15.70
2017-12-19T22:47:49.542Z,15.25
2017-12-19T22:50:17.084Z,14.60
2017-12-19T22:52:44.613Z,15.90
2017-12-19T22:55:12.983Z,16.45
2017-12-19T22:57:41.223Z,16.33
2017-12-19T23:00:08.744Z,11.18
2017-12-19T23:02:36.231Z,14.68
2017-12-19T23:05:03.796Z,15.27
2017-12-19T23:07:31.316Z,15.90
2017-12-19T23:09:58.837Z,16.83
2017-12-19T23:12:26.361Z,17.15
2017-12-19T23:14:53.862Z,18.45
2017-12-19T23:17:21.357Z,16.08
2017-12-19T23:19:48.816Z,17.83
2017-12-19T23:22:16.366Z,17.17
2017-12-19T23:24:45.350Z,16.80
2017-12-19T23:27:13.629Z,16.95
2017-12-19T23:29:41.854Z,15.45
2017-12-19T23:32:10.090Z,18.45
2017-12-19T23:34:37.616Z,16.90
2017-12-19T23:37:05.164Z,15.68
2017-12-19T23:39:32.629Z,17.42
2017-12-19T23:42:00.146Z,18.20
2017-12-19T23:44:27.593Z,18.02
2017-12-19T23:46:55.900Z,17.40
2017-12-19T23:49:23.408Z,18.20
2017-12-19T23:51:51.688Z,17.10
2017-12-19T23:54:19.115Z,18.00
2017-12-19T23:56:46.589Z,16.90
2017-12-19T23:59:14.827Z,18.23
